Time;durP1;ratioP1;P1;durP2;ratioP2;P2;SDS_P1;SDS_P2;PMS_P1;PMS_P2;Temp;Humidity;BMP_temperature;BMP_pressure;BME280_temperature;BME280_humidity;BME280_pressure;Samples;Min_cycle;Max_cycle;Signal;HPM_P1;HPM_P2
2022/04/23 00:00:54;;;;;;;12.60;7.00;;;14.10;96.00;;;;;;5033617;28;20046;-77
2022/04/23 00:03:19;;;;;;;14.15;6.95;;;14.10;96.20;;;;;;5033603;28;20045;-77
2022/04/23 00:05:45;;;;;;;13.70;6.68;;;14.00;96.20;;;;;;5033401;28;20057;-77
2022/04/23 00:08:11;;;;;;;13.60;7.00;;;14.00;96.10;;;;;;5017065;28;20108;-77
2022/04/23 00:10:37;;;;;;;14.98;7.20;;;14.00;96.20;;;;;;5033317;28;20053;-77
2022/04/23 00:13:04;;;;;;;12.13;6.97;;;14.10;96.10;;;;;;5033320;28;20112;-78
2022/04/23 00:15:37;;;;;;;17.58;7.63;;;14.20;96.00;;;;;;5033509;28;20142;-78
2022/04/23 00:18:10;;;;;;;13.35;6.22;;;14.10;96.00;;;;;;5032914;28;20053;-78
2022/04/23 00:20:37;;;;;;;14.57;6.10;;;13.80;96.20;;;;;;5033314;28;20072;-77
2022/04/23 00:23:05;;;;;;;11.15;7.00;;;13.90;96.10;;;;;;5032697;28;20061;-77
2022/04/23 00:25:31;;;;;;;19.45;7.30;;;13.80;96.10;;;;;;5032098;28;20504;-77
2022/04/23 00:27:57;;;;;;;15.70;7.38;;;13.70;96.20;;;;;;5032861;28;20492;-77
2022/04/23 00:30:23;;;;;;;16.27;7.20;;;13.60;96.30;;;;;;5033482;28;20088;-77
2022/04/23 00:32:49;;;;;;;12.80;7.00;;;13.50;96.30;;;;;;5033161;28;20081;-77
2022/04/23 00:35:16;;;;;;;20.95;8.13;;;13.50;96.40;;;;;;5032987;28;20045;-77
2022/04/23 00:37:42;;;;;;;17.33;7.35;;;13.50;96.30;;;;;;5016554;28;20480;-78
2022/04/23 00:40:16;;;;;;;23.33;8.15;;;13.20;96.60;;;;;;5032867;28;20046;-77
2022/04/23 00:42:51;;;;;;;13.65;7.63;;;13.20;96.70;;;;;;5033041;28;20056;-77
2022/04/23 00:45:21;;;;;;;15.17;7.47;;;13.20;96.80;;;;;;5032736;28;20132;-77
2022/04/23 00:47:46;;;;;;;19.15;8.40;;;13.00;96.90;;;;;;5033352;28;20053;-77
2022/04/23 00:50:12;;;;;;;14.02;8.43;;;13.10;96.90;;;;;;5032801;28;20485;-77
2022/04/23 00:52:38;;;;;;;18.25;8.45;;;13.10;97.00;;;;;;5015967;28;20052;-77
2022/04/23 00:55:06;;;;;;;17.13;9.80;;;12.90;97.20;;;;;;5032751;28;20524;-77
2022/04/23 00:57:33;;;;;;;16.38;8.00;;;13.00;97.20;;;;;;5016256;28;20473;-77
2022/04/23 01:00:02;;;;;;;16.45;9.18;;;13.00;97.30;;;;;;5032665;28;20049;-77
2022/04/23 01:02:28;;;;;;;16.73;8.95;;;12.90;97.30;;;;;;5032688;28;20128;-77
2022/04/23 01:04:54;;;;;;;17.13;9.50;;;13.00;97.30;;;;;;5032326;28;20203;-77
2022/04/23 01:07:20;;;;;;;17.90;8.80;;;13.00;97.30;;;;;;5032602;28;20076;-77
2022/04/23 01:09:47;;;;;;;16.85;8.50;;;12.90;97.40;;;;;;5032583;28;20081;-77
2022/04/23 01:12:13;;;;;;;17.50;9.05;;;12.90;97.50;;;;;;5016255;28;20522;-77
2022/04/23 01:14:59;;;;;;;15.02;8.40;;;12.90;97.60;;;;;;5032438;28;20136;-78
2022/04/23 01:17:25;;;;;;;15.10;8.80;;;12.90;97.60;;;;;;5032146;28;20054;-78
2022/04/23 01:19:50;;;;;;;15.40;9.63;;;12.80;97.50;;;;;;5016320;28;20057;-77
2022/04/23 01:22:17;;;;;;;19.10;9.50;;;12.80;97.50;;;;;;5032205;28;20395;-77
2022/04/23 01:24:43;;;;;;;21.15;10.40;;;12.80;97.50;;;;;;5032280;28;20041;-77
2022/04/23 01:27:10;;;;;;;22.30;10.70;;;12.80;97.60;;;;;;5032180;28;20396;-78
2022/04/23 01:29:37;;;;;;;15.63;9.77;;;12.60;97.70;;;;;;5032409;28;20049;-78
2022/04/23 01:32:06;;;;;;;20.45;10.68;;;12.50;97.80;;;;;;5016015;28;20049;-78
2022/04/23 01:34:32;;;;;;;22.38;9.80;;;12.50;97.80;;;;;;5032435;28;20052;-78
2022/04/23 01:36:58;;;;;;;18.58;9.95;;;12.70;97.80;;;;;;5035299;28;20128;-78
2022/04/23 01:39:23;;;;;;;24.05;10.32;;;12.60;97.80;;;;;;5036430;28;20042;-78
2022/04/23 01:41:49;;;;;;;19.60;11.13;;;12.50;97.90;;;;;;5036312;28;20072;-77
2022/04/23 01:44:15;;;;;;;19.30;10.85;;;12.50;97.90;;;;;;5036100;28;20098;-78
2022/04/23 01:46:42;;;;;;;15.20;9.18;;;12.40;97.90;;;;;;5035994;28;20046;-78
2022/04/23 01:49:07;;;;;;;18.90;10.45;;;12.50;98.00;;;;;;5036183;28;20045;-78
2022/04/23 01:51:33;;;;;;;16.27;10.25;;;12.50;98.00;;;;;;5036087;28;20045;-77
2022/04/23 01:53:59;;;;;;;19.63;10.40;;;12.50;97.90;;;;;;5036008;28;20041;-78
2022/04/23 01:56:25;;;;;;;19.40;10.73;;;12.40;97.90;;;;;;5036149;28;20042;-77
2022/04/23 01:58:51;;;;;;;19.98;11.38;;;12.40;98.00;;;;;;5035910;28;20045;-78
2022/04/23 02:01:17;;;;;;;21.13;10.98;;;12.40;98.00;;;;;;5035761;28;20056;-78
2022/04/23 02:03:45;;;;;;;19.70;10.30;;;12.40;98.10;;;;;;5019304;28;20038;-78
2022/04/23 02:06:12;;;;;;;21.63;11.68;;;12.30;98.10;;;;;;5035417;28;20124;-78
2022/04/23 02:08:38;;;;;;;17.73;10.70;;;12.40;98.10;;;;;;5036083;28;20187;-78
2022/04/23 02:11:03;;;;;;;19.58;11.38;;;12.20;98.10;;;;;;5035876;28;20464;-78
2022/04/23 02:13:30;;;;;;;20.52;11.40;;;12.10;98.20;;;;;;5019213;28;20049;-78
2022/04/23 02:15:56;;;;;;;15.90;10.45;;;12.10;98.30;;;;;;5035661;28;20050;-79
2022/04/23 02:18:22;;;;;;;17.42;11.43;;;12.20;98.30;;;;;;5018908;28;20449;-78
2022/04/23 02:20:48;;;;;;;19.42;11.18;;;12.20;98.40;;;;;;5018804;28;20515;-78
2022/04/23 02:23:14;;;;;;;20.33;11.65;;;12.30;98.40;;;;;;5034900;28;20053;-78
2022/04/23 02:25:40;;;;;;;20.98;11.48;;;12.30;98.30;;;;;;5035072;28;20099;-78
2022/04/23 02:28:05;;;;;;;22.92;11.50;;;12.20;98.50;;;;;;5018841;28;20046;-78
2022/04/23 02:30:34;;;;;;;19.73;11.40;;;12.20;98.50;;;;;;5018849;28;20042;-78
2022/04/23 02:33:00;;;;;;;19.88;11.82;;;12.00;98.80;;;;;;5035273;28;20520;-78
2022/04/23 02:35:27;;;;;;;20.17;11.85;;;11.90;98.70;;;;;;5018778;28;20099;-78
2022/04/23 02:37:57;;;;;;;22.77;12.23;;;11.80;98.90;;;;;;5035209;28;20049;-78
2022/04/23 02:40:23;;;;;;;18.58;11.68;;;11.90;98.90;;;;;;5035219;28;20396;-78
2022/04/23 02:42:51;;;;;;;22.88;11.13;;;11.90;99.00;;;;;;5035114;28;20056;-78
2022/04/23 02:45:18;;;;;;;20.33;11.68;;;12.00;99.00;;;;;;5018471;28;20045;-78
2022/04/23 02:47:46;;;;;;;22.77;11.98;;;12.00;99.00;;;;;;5034128;28;20405;-78
2022/04/23 02:50:13;;;;;;;18.67;11.20;;;12.00;98.90;;;;;;5034925;28;20045;-78
2022/04/23 02:52:44;;;;;;;19.77;12.18;;;12.00;98.90;;;;;;5018127;28;20083;-78
2022/04/23 02:55:12;;;;;;;16.52;11.30;;;11.90;98.90;;;;;;5034752;28;20060;-79
2022/04/23 02:57:41;;;;;;;23.15;11.82;;;12.00;98.90;;;;;;5034957;28;20042;-78
2022/04/23 03:00:10;;;;;;;23.67;11.43;;;11.80;99.00;;;;;;5034716;28;20054;-78
2022/04/23 03:02:36;;;;;;;19.48;11.13;;;11.80;99.10;;;;;;5034719;28;20049;-78
2022/04/23 03:05:11;;;;;;;18.52;10.73;;;11.80;99.10;;;;;;5017679;28;20038;-78
2022/04/23 03:07:38;;;;;;;18.20;11.13;;;11.80;99.10;;;;;;5034351;28;20061;-78
2022/04/23 03:10:05;;;;;;;16.23;10.95;;;11.90;99.00;;;;;;5018272;28;20056;-78
2022/04/23 03:12:31;;;;;;;19.90;11.43;;;11.90;99.00;;;;;;5017689;28;20049;-78
2022/04/23 03:14:57;;;;;;;18.10;11.50;;;11.80;99.10;;;;;;5034567;28;20049;-78
2022/04/23 03:17:23;;;;;;;22.83;11.40;;;11.80;99.10;;;;;;5034050;28;20056;-79
2022/04/23 03:19:49;;;;;;;18.42;11.15;;;11.80;99.00;;;;;;5034638;28;20049;-79
2022/04/23 03:22:20;;;;;;;19.98;12.18;;;11.80;99.00;;;;;;5033606;28;20494;-78
2022/04/23 03:24:47;;;;;;;15.93;11.02;;;11.70;99.10;;;;;;5034249;28;20501;-78
2022/04/23 03:27:12;;;;;;;19.35;11.00;;;11.80;99.00;;;;;;5034234;28;20484;-78
2022/04/23 03:29:39;;;;;;;16.92;10.80;;;11.70;99.00;;;;;;5018021;28;20052;-78
2022/04/23 03:32:05;;;;;;;22.05;11.32;;;11.70;99.00;;;;;;5034158;28;20061;-78
2022/04/23 03:34:31;;;;;;;20.08;11.40;;;11.70;99.10;;;;;;5034146;28;20140;-78
2022/04/23 03:36:57;;;;;;;20.60;11.20;;;11.80;98.90;;;;;;5034110;28;20085;-78
2022/04/23 03:39:23;;;;;;;15.88;10.45;;;11.80;98.90;;;;;;5033998;28;20407;-78
2022/04/23 03:41:48;;;;;;;18.33;10.75;;;11.90;98.90;;;;;;5033996;28;20048;-78
2022/04/23 03:44:14;;;;;;;19.73;10.48;;;11.90;98.80;;;;;;5017452;28;20128;-78
2022/04/23 03:46:40;;;;;;;17.67;11.57;;;11.80;98.70;;;;;;5017488;28;20041;-78
2022/04/23 03:49:07;;;;;;;19.88;11.60;;;11.80;98.70;;;;;;5033846;28;20045;-78
2022/04/23 03:51:34;;;;;;;20.05;11.30;;;11.60;98.80;;;;;;5017216;28;20439;-78
2022/04/23 03:54:01;;;;;;;17.23;11.40;;;11.60;98.90;;;;;;5033503;28;20086;-78
2022/04/23 03:56:27;;;;;;;19.92;12.18;;;11.40;98.90;;;;;;5017117;28;20400;-78
2022/04/23 03:58:53;;;;;;;17.65;11.30;;;11.50;98.90;;;;;;5033781;28;20053;-78
2022/04/23 04:01:19;;;;;;;16.05;11.90;;;11.60;98.80;;;;;;5017067;28;20408;-78
2022/04/23 04:03:44;;;;;;;16.13;11.20;;;11.50;98.80;;;;;;5033652;28;20045;-78
2022/04/23 04:06:10;;;;;;;17.77;11.40;;;11.60;98.70;;;;;;5033471;28;20480;-78
2022/04/23 04:08:36;;;;;;;21.75;11.57;;;11.50;98.70;;;;;;5033751;28;20052;-78
2022/04/23 04:11:02;;;;;;;21.80;12.13;;;11.50;98.70;;;;;;5033460;28;20392;-78
2022/04/23 04:13:28;;;;;;;18.17;11.32;;;11.50;98.70;;;;;;5033495;28;20045;-78
2022/04/23 04:15:55;;;;;;;19.80;12.10;;;11.40;98.70;;;;;;5033625;28;20080;-78
2022/04/23 04:18:22;;;;;;;17.15;9.95;;;11.50;98.70;;;;;;5032885;28;20135;-78
2022/04/23 04:20:49;;;;;;;17.02;10.73;;;11.30;98.80;;;;;;5033304;28;20401;-78
2022/04/23 04:23:16;;;;;;;16.58;10.80;;;11.40;98.70;;;;;;5016426;28;20045;-78
2022/04/23 04:25:42;;;;;;;17.98;10.95;;;11.40;98.60;;;;;;5033021;28;20045;-78
2022/04/23 04:28:09;;;;;;;18.50;11.13;;;11.10;98.70;;;;;;5033259;28;20048;-78
2022/04/23 04:33:19;;;;;;;18.52;11.90;;;11.20;98.70;;;;;;5033004;28;20100;-78
2022/04/23 04:35:45;;;;;;;17.98;10.65;;;11.30;98.70;;;;;;5032736;28;20504;-78
2022/04/23 04:38:11;;;;;;;19.70;12.05;;;11.20;98.80;;;;;;5032909;28;20080;-78
2022/04/23 04:40:36;;;;;;;20.90;12.25;;;11.20;98.80;;;;;;5032932;28;20049;-78
2022/04/23 04:43:02;;;;;;;19.23;11.77;;;11.20;98.70;;;;;;5033011;28;20511;-78
2022/04/23 04:45:28;;;;;;;21.15;12.02;;;11.10;98.80;;;;;;5032692;28;20049;-78
2022/04/23 04:47:53;;;;;;;17.85;11.95;;;11.10;98.70;;;;;;5032855;28;20132;-78
2022/04/23 04:50:19;;;;;;;20.63;12.27;;;11.10;98.80;;;;;;5032898;28;20038;-78
2022/04/23 04:52:45;;;;;;;15.93;11.05;;;11.00;98.90;;;;;;5032421;28;20045;-78
2022/04/23 04:55:11;;;;;;;22.15;12.27;;;11.10;98.80;;;;;;5016310;28;20508;-78
2022/04/23 04:57:36;;;;;;;16.67;11.48;;;11.10;98.80;;;;;;5032680;28;20053;-78
2022/04/23 05:00:04;;;;;;;14.65;10.95;;;11.10;98.80;;;;;;5032626;28;20120;-78
2022/04/23 05:02:30;;;;;;;18.92;11.88;;;11.10;98.80;;;;;;5032726;28;20381;-78
2022/04/23 05:04:55;;;;;;;18.45;11.80;;;11.00;98.70;;;;;;5016076;28;20038;-78
2022/04/23 05:07:21;;;;;;;18.38;11.63;;;11.10;98.70;;;;;;5032664;28;20041;-78
2022/04/23 05:09:47;;;;;;;17.85;10.70;;;11.00;98.70;;;;;;5016359;28;20159;-78
2022/04/23 05:12:12;;;;;;;16.40;11.15;;;10.90;98.70;;;;;;5038741;28;20052;-78
2022/04/23 05:14:38;;;;;;;20.70;11.43;;;10.90;98.80;;;;;;5022745;28;20046;-78
2022/04/23 05:17:04;;;;;;;17.70;11.63;;;11.10;98.80;;;;;;5022480;28;20045;-78
2022/04/23 05:19:30;;;;;;;18.33;11.82;;;11.00;98.70;;;;;;5022187;28;20052;-78
2022/04/23 05:21:56;;;;;;;18.98;11.02;;;10.90;98.70;;;;;;5038555;28;20049;-78
2022/04/23 05:24:24;;;;;;;16.35;10.75;;;10.90;98.80;;;;;;5039032;28;20103;-78
2022/04/23 05:26:49;;;;;;;19.52;10.82;;;11.00;98.60;;;;;;5039061;28;20080;-78
2022/04/23 05:29:15;;;;;;;16.30;10.75;;;10.80;98.70;;;;;;5039007;28;20096;-78
2022/04/23 05:31:41;;;;;;;16.13;10.40;;;10.90;98.70;;;;;;5039188;28;20041;-78
2022/04/23 05:34:07;;;;;;;17.13;10.95;;;10.90;98.60;;;;;;5038983;28;20056;-78
2022/04/23 05:36:33;;;;;;;17.73;10.80;;;10.80;98.70;;;;;;5022478;28;20049;-78
2022/04/23 05:38:58;;;;;;;15.43;10.13;;;10.90;98.60;;;;;;5022133;28;20083;-79
2022/04/23 05:41:24;;;;;;;16.58;10.38;;;11.10;98.60;;;;;;5022541;28;20041;-78
2022/04/23 05:43:50;;;;;;;13.98;9.77;;;11.20;98.50;;;;;;5038574;28;20052;-78
2022/04/23 05:46:17;;;;;;;16.35;10.70;;;11.20;98.40;;;;;;5038921;28;20075;-78
2022/04/23 05:48:43;;;;;;;15.75;10.38;;;11.20;98.40;;;;;;5022240;28;20481;-78
2022/04/23 05:51:09;;;;;;;17.65;10.30;;;11.20;98.40;;;;;;5038886;28;20439;-78
2022/04/23 05:53:35;;;;;;;16.13;10.07;;;11.10;98.40;;;;;;5021882;28;20099;-78
2022/04/23 05:56:01;;;;;;;14.93;10.27;;;11.10;98.30;;;;;;5022304;28;20041;-78
2022/04/23 05:58:27;;;;;;;17.50;10.20;;;11.10;98.30;;;;;;5038728;28;20057;-78
2022/04/23 06:00:53;;;;;;;13.90;9.43;;;11.10;98.40;;;;;;5022253;28;20047;-78
2022/04/23 06:03:20;;;;;;;13.93;10.05;;;11.20;98.40;;;;;;5022292;28;20190;-78
2022/04/23 06:05:46;;;;;;;15.02;10.05;;;11.20;98.10;;;;;;5038332;28;20046;-78
2022/04/23 06:08:12;;;;;;;13.55;10.00;;;11.20;98.30;;;;;;5038685;28;20056;-78
2022/04/23 06:10:37;;;;;;;16.90;11.18;;;11.30;98.30;;;;;;5038622;28;20049;-77
2022/04/23 06:13:06;;;;;;;15.10;10.27;;;11.30;98.20;;;;;;5021996;28;20049;-78
2022/04/23 06:15:32;;;;;;;13.88;9.55;;;11.40;98.10;;;;;;5022355;28;20064;-78
2022/04/23 06:17:57;;;;;;;15.07;9.77;;;11.40;98.10;;;;;;5038379;28;20061;-78
2022/04/23 06:20:23;;;;;;;17.80;10.10;;;11.40;98.10;;;;;;5038601;28;20056;-78
2022/04/23 06:22:49;;;;;;;13.85;10.05;;;11.60;98.00;;;;;;5018165;28;20128;-78
2022/04/23 06:25:14;;;;;;;16.42;10.35;;;11.70;97.90;;;;;;5035223;28;20195;-78
2022/04/23 06:27:40;;;;;;;15.88;11.00;;;11.70;97.80;;;;;;5018958;28;20037;-78
2022/04/23 06:30:09;;;;;;;13.65;10.57;;;11.60;97.80;;;;;;5018923;28;20037;-78
2022/04/23 06:32:36;;;;;;;14.43;9.95;;;11.60;97.80;;;;;;5035017;28;20053;-78
2022/04/23 06:35:02;;;;;;;13.95;10.32;;;11.70;97.80;;;;;;5035305;28;20100;-78
2022/04/23 06:37:28;;;;;;;16.02;10.52;;;11.80;97.70;;;;;;5035073;28;20088;-78
2022/04/23 06:39:53;;;;;;;16.88;11.52;;;11.90;97.70;;;;;;5035132;28;20045;-78
2022/04/23 06:42:19;;;;;;;13.73;10.18;;;12.00;97.60;;;;;;5018662;28;20044;-78
2022/04/23 06:44:45;;;;;;;14.52;10.07;;;12.00;97.60;;;;;;5034562;28;20041;-78
2022/04/23 06:47:10;;;;;;;17.33;10.27;;;12.10;97.50;;;;;;5035081;28;20081;-78
2022/04/23 06:49:36;;;;;;;16.42;9.70;;;12.30;97.20;;;;;;5034901;28;20054;-78
2022/04/23 06:52:02;;;;;;;14.40;10.75;;;12.20;97.00;;;;;;5034605;28;20049;-78
2022/04/23 06:54:28;;;;;;;16.42;10.70;;;12.30;97.10;;;;;;5034904;28;20131;-78
2022/04/23 06:56:53;;;;;;;15.02;10.30;;;12.40;96.90;;;;;;5018496;28;20048;-78
2022/04/23 06:59:19;;;;;;;19.88;10.15;;;12.50;96.90;;;;;;5034737;28;20049;-78
2022/04/23 07:01:45;;;;;;;13.32;9.57;;;12.60;96.70;;;;;;5034759;28;20045;-78
2022/04/23 07:04:11;;;;;;;16.60;10.40;;;12.60;96.40;;;;;;5034281;28;20091;-78
2022/04/23 07:06:36;;;;;;;15.32;9.88;;;12.70;96.40;;;;;;5034653;28;20122;-77
2022/04/23 07:09:03;;;;;;;14.70;11.07;;;12.80;96.50;;;;;;5034677;28;20103;-78
2022/04/23 07:11:29;;;;;;;13.90;9.93;;;12.80;96.10;;;;;;5018373;28;20411;-78
2022/04/23 07:13:55;;;;;;;15.65;9.60;;;12.70;96.10;;;;;;5034328;28;20373;-78
2022/04/23 07:16:21;;;;;;;16.17;9.73;;;12.80;96.20;;;;;;5018068;28;20056;-78
2022/04/23 07:18:47;;;;;;;14.88;9.55;;;12.90;96.00;;;;;;5034128;28;20072;-78
2022/04/23 07:21:13;;;;;;;17.23;10.00;;;13.10;96.20;;;;;;5018041;28;20132;-78
2022/04/23 07:26:38;;;;;;;17.60;10.45;;;13.20;96.10;;;;;;4989599;28;20041;-78
2022/04/23 07:29:06;;;;;;;15.07;9.77;;;13.30;96.00;;;;;;5034138;28;20053;-78
2022/04/23 07:31:32;;;;;;;14.18;10.10;;;13.40;95.90;;;;;;5034336;28;20084;-79
2022/04/23 07:39:27;;;;;;;18.08;10.10;;;13.50;95.70;;;;;;5034475;28;20053;-78
2022/04/23 07:41:55;;;;;;;13.85;10.20;;;13.50;95.00;;;;;;5034424;28;20049;-78
2022/04/23 07:44:22;;;;;;;14.68;9.90;;;13.50;95.40;;;;;;5034065;28;20120;-76
2022/04/23 07:46:49;;;;;;;12.65;9.52;;;13.50;95.20;;;;;;5033921;28;20041;-75
2022/04/23 07:49:15;;;;;;;11.23;9.32;;;13.60;95.00;;;;;;5033902;28;20085;-73
2022/04/23 07:51:42;;;;;;;13.20;9.07;;;13.80;95.50;;;;;;5033371;28;20582;-75
2022/04/23 07:54:08;;;;;;;11.68;9.15;;;14.00;95.20;;;;;;5036415;28;20061;-71
2022/04/23 07:56:35;;;;;;;13.05;9.35;;;14.00;94.90;;;;;;5040466;28;20111;-77
2022/04/23 07:59:00;;;;;;;15.90;9.80;;;14.10;95.00;;;;;;5034082;28;20092;-74
2022/04/23 08:01:26;;;;;;;12.77;9.60;;;14.10;94.70;;;;;;5033718;28;20080;-73
2022/04/23 08:03:51;;;;;;;14.90;9.75;;;14.00;94.70;;;;;;5033536;28;20457;-75
2022/04/23 08:06:17;;;;;;;14.68;9.63;;;14.20;95.00;;;;;;5033455;28;20049;-74
2022/04/23 08:08:43;;;;;;;17.77;9.85;;;14.40;95.10;;;;;;5033628;28;20103;-75
2022/04/23 08:11:09;;;;;;;13.52;10.20;;;14.40;94.80;;;;;;5000861;28;20550;-75
2022/04/23 08:13:35;;;;;;;14.05;10.13;;;14.40;94.50;;;;;;5034465;28;20076;-75
2022/04/23 08:16:03;;;;;;;17.77;9.75;;;14.30;94.80;;;;;;5033292;28;20393;-75
2022/04/23 08:18:29;;;;;;;16.50;10.07;;;14.40;94.90;;;;;;5032825;28;20064;-75
2022/04/23 08:20:55;;;;;;;14.88;9.98;;;14.50;94.80;;;;;;5033140;28;20053;-75
2022/04/23 08:23:21;;;;;;;14.52;9.95;;;14.60;94.70;;;;;;5032670;28;20175;-74
2022/04/23 08:25:47;;;;;;;15.93;9.55;;;14.60;94.60;;;;;;5032565;28;20405;-75
2022/04/23 08:30:59;;;;;;;14.25;9.77;;;14.70;94.30;;;;;;5033103;28;20187;-75
2022/04/23 08:33:57;;;;;;;14.50;10.30;;;14.70;94.50;;;;;;5016576;28;20128;-74
2022/04/23 08:36:11;;;;;;;26.23;9.85;;;14.90;94.10;;;;;;5032741;28;20055;-74
2022/04/23 08:38:36;;;;;;;13.77;9.73;;;14.80;93.80;;;;;;5016485;28;20053;-74
2022/04/23 08:41:04;;;;;;;12.80;9.77;;;14.60;93.90;;;;;;5032907;28;20042;-74
2022/04/23 08:43:31;;;;;;;12.93;9.27;;;14.70;93.90;;;;;;5032758;28;20501;-76
2022/04/23 08:46:02;;;;;;;16.13;10.38;;;14.70;94.10;;;;;;5032049;28;20045;-75
2022/04/23 08:48:36;;;;;;;12.13;9.77;;;14.90;93.90;;;;;;5033019;28;20053;-75
2022/04/23 08:51:03;;;;;;;15.65;9.98;;;15.00;93.90;;;;;;5032879;28;20155;-75
2022/04/23 08:53:31;;;;;;;16.23;9.40;;;15.00;93.50;;;;;;5032558;28;20401;-75
2022/04/23 08:55:57;;;;;;;15.00;9.57;;;14.90;93.80;;;;;;5032723;28;20132;-75
2022/04/23 08:58:24;;;;;;;13.50;9.98;;;15.10;93.80;;;;;;5032747;28;20528;-75
2022/04/23 09:00:49;;;;;;;14.20;10.18;;;15.20;93.90;;;;;;5032699;28;20092;-75
2022/04/23 09:03:16;;;;;;;11.43;8.90;;;15.30;93.90;;;;;;5033127;28;20084;-75
2022/04/23 09:05:43;;;;;;;12.80;9.57;;;15.30;93.90;;;;;;5033620;28;20053;-74
2022/04/23 09:08:10;;;;;;;11.85;9.48;;;15.50;93.90;;;;;;5033605;28;20052;-74
2022/04/23 09:10:54;;;;;;;14.20;9.18;;;15.80;93.80;;;;;;5032655;28;20056;-74
2022/04/23 09:13:32;;;;;;;14.35;9.50;;;15.80;93.40;;;;;;5034933;28;20053;-75
2022/04/23 09:24:19;;;;;;;12.55;9.70;;;16.00;93.30;;;;;;5032523;28;20080;-75
2022/04/23 09:27:06;;;;;;;22.05;9.90;;;16.10;93.70;;;;;;5032345;28;20484;-75
2022/04/23 09:29:32;;;;;;;15.40;9.20;;;16.20;93.10;;;;;;5032451;28;20053;-75
2022/04/23 09:32:19;;;;;;;12.05;9.05;;;16.20;93.20;;;;;;5033429;28;20436;-75
2022/04/23 09:34:45;;;;;;;13.20;8.80;;;16.30;92.70;;;;;;5032574;28;20053;-75
2022/04/23 09:37:10;;;;;;;12.68;9.00;;;16.50;93.20;;;;;;5033342;28;20485;-75
2022/04/23 09:39:38;;;;;;;14.88;9.52;;;16.50;92.50;;;;;;5030920;28;20224;-75
2022/04/23 09:42:12;;;;;;;13.40;8.90;;;16.50;92.60;;;;;;5030754;28;20042;-75
2022/04/23 09:44:38;;;;;;;11.85;8.60;;;16.60;92.60;;;;;;5031033;28;20084;-75
2022/04/23 09:47:04;;;;;;;16.83;9.43;;;16.70;92.40;;;;;;5030717;28;20563;-75
2022/04/23 09:49:30;;;;;;;10.80;8.35;;;16.60;92.10;;;;;;5030190;28;20084;-76
2022/04/23 09:52:04;;;;;;;14.63;8.20;;;16.60;91.90;;;;;;5015062;28;20081;-75
2022/04/23 09:54:33;;;;;;;11.55;8.68;;;16.80;91.80;;;;;;5032324;28;20140;-73
2022/04/23 09:57:00;;;;;;;17.20;8.80;;;16.60;92.00;;;;;;5036365;28;20080;-74
2022/04/23 09:59:30;;;;;;;14.63;8.80;;;16.80;92.50;;;;;;5035995;28;20052;-74
2022/04/23 10:01:56;;;;;;;11.98;8.18;;;17.00;92.20;;;;;;5035878;28;20053;-74
2022/04/23 10:04:26;;;;;;;10.32;8.88;;;17.00;91.90;;;;;;5035640;28;20052;-74
2022/04/23 10:06:53;;;;;;;11.85;8.60;;;17.20;91.90;;;;;;5035474;28;20053;-75
2022/04/23 10:09:21;;;;;;;13.07;8.23;;;17.30;91.70;;;;;;5035771;28;20101;-74
2022/04/23 10:12:01;;;;;;;10.45;8.73;;;17.40;91.90;;;;;;5035672;28;20132;-73
2022/04/23 10:14:28;;;;;;;14.38;9.00;;;17.40;92.00;;;;;;5035712;28;20497;-74
2022/04/23 10:16:55;;;;;;;10.32;8.57;;;17.60;92.00;;;;;;5035746;28;20094;-74
2022/04/23 10:19:22;;;;;;;12.50;8.27;;;17.70;92.00;;;;;;5018589;28;20060;-77
2022/04/23 10:22:09;;;;;;;11.30;8.80;;;17.80;92.30;;;;;;5018735;28;20041;-81
2022/04/23 10:24:35;;;;;;;;;;;17.80;91.80;;;;;;5035942;28;20052;-75
2022/04/23 10:27:07;;;;;;;14.33;9.03;;;17.70;91.90;;;;;;5035443;28;20353;-75
2022/04/23 10:29:34;;;;;;;12.27;9.40;;;17.90;92.00;;;;;;5036451;28;20050;-75
2022/04/23 10:32:12;;;;;;;11.43;8.65;;;18.30;92.30;;;;;;5034235;28;20095;-76
2022/04/23 10:34:39;;;;;;;16.92;9.07;;;18.30;91.60;;;;;;5035175;28;20046;-76
2022/04/23 10:37:24;;;;;;;16.25;9.57;;;18.40;91.60;;;;;;5034855;28;20041;-74
2022/04/23 10:39:53;;;;;;;11.20;8.63;;;18.40;91.30;;;;;;5034601;28;20574;-74
2022/04/23 10:42:23;;;;;;;10.73;8.77;;;18.50;91.30;;;;;;5036288;28;20060;-75
2022/04/23 10:44:50;;;;;;;10.13;8.18;;;18.60;91.60;;;;;;5034681;28;20038;-73
2022/04/23 10:47:34;;;;;;;12.85;9.15;;;18.70;91.60;;;;;;5036007;28;20480;-74
2022/04/23 10:50:16;;;;;;;11.25;9.02;;;18.60;91.20;;;;;;5051347;28;20147;-75
2022/04/23 10:52:43;;;;;;;11.60;8.57;;;18.70;91.20;;;;;;5035410;28;20057;-75
2022/04/23 10:55:10;;;;;;;11.07;8.27;;;18.80;91.90;;;;;;5035693;28;20090;-74
2022/04/23 10:57:35;;;;;;;12.55;7.93;;;19.20;91.40;;;;;;5034796;28;20045;-75
2022/04/23 11:00:12;;;;;;;9.75;8.02;;;19.50;91.70;;;;;;5035767;28;20056;-74
2022/04/23 11:02:39;;;;;;;12.60;8.63;;;19.50;91.20;;;;;;5035378;28;20060;-74
2022/04/23 11:13:55;;;;;;;9.65;7.88;;;18.00;90.90;;;;;;5034620;28;20056;-83
2022/04/23 11:16:22;;;;;;;10.02;8.10;;;18.30;91.00;;;;;;5034542;28;20128;-83
2022/04/23 11:18:50;;;;;;;10.15;7.90;;;18.50;91.30;;;;;;5033999;28;20064;-84
2022/04/23 11:21:24;;;;;;;9.38;7.43;;;18.50;90.80;;;;;;5034414;28;20053;-78
2022/04/23 11:23:51;;;;;;;13.73;6.55;;;18.30;90.90;;;;;;5033862;28;20436;-77
2022/04/23 11:26:41;;;;;;;9.50;7.05;;;18.90;91.00;;;;;;5037266;28;20060;-83
2022/04/23 11:29:06;;;;;;;10.45;7.03;;;19.30;91.00;;;;;;5033872;28;20049;-80
2022/04/23 11:31:32;;;;;;;10.68;7.85;;;19.30;90.70;;;;;;5034187;28;20374;-81
2022/04/23 11:34:00;;;;;;;10.80;7.30;;;19.20;90.50;;;;;;5034208;28;20436;-74
2022/04/23 11:36:29;;;;;;;12.75;7.47;;;19.30;90.70;;;;;;5034241;28;20052;-73
2022/04/23 11:38:56;;;;;;;11.07;7.97;;;19.80;90.70;;;;;;5034115;28;20088;-73
2022/04/23 11:41:48;;;;;;;11.70;7.78;;;20.30;90.50;;;;;;5035017;28;20089;-73
2022/04/23 11:44:45;;;;;;;8.32;7.18;;;20.30;90.40;;;;;;5034061;28;20068;-73
2022/04/23 11:47:04;;;;;;;9.80;7.63;;;20.60;90.90;;;;;;5033098;28;20064;-74
2022/04/23 11:49:31;;;;;;;12.60;7.32;;;20.70;89.90;;;;;;5038552;28;20053;-74
2022/04/23 11:52:07;;;;;;;8.98;7.35;;;20.10;90.20;;;;;;5049918;28;20489;-74
2022/04/23 11:54:41;;;;;;;10.68;7.65;;;20.40;90.40;;;;;;5033972;28;20455;-74
2022/04/23 11:57:17;;;;;;;11.57;7.32;;;20.50;90.30;;;;;;5033943;28;20056;-74
2022/04/23 11:59:45;;;;;;;8.57;6.70;;;20.70;90.20;;;;;;5017111;28;20085;-74
2022/04/23 12:02:19;;;;;;;10.18;7.38;;;20.80;89.50;;;;;;5033685;28;20068;-74
2022/04/23 12:04:48;;;;;;;11.90;7.18;;;20.90;90.30;;;;;;5033290;28;20477;-74
2022/04/23 12:07:14;;;;;;;14.10;6.97;;;20.90;90.30;;;;;;5034768;28;20041;-74
2022/04/23 12:09:45;;;;;;;8.70;6.72;;;21.50;90.60;;;;;;5033501;28;20469;-74
2022/04/23 12:12:15;;;;;;;7.38;6.22;;;21.80;89.60;;;;;;5033329;28;20057;-74
2022/04/23 12:14:45;;;;;;;9.70;7.55;;;21.80;89.70;;;;;;5033096;28;20042;-75
2022/04/23 12:17:19;;;;;;;8.35;6.50;;;21.80;88.80;;;;;;5033404;28;20046;-74
2022/04/23 12:19:46;;;;;;;10.32;7.03;;;22.00;89.40;;;;;;5017446;28;20559;-74
2022/04/23 12:22:28;;;;;;;11.43;7.25;;;22.00;89.00;;;;;;5032874;28;20084;-74
2022/04/23 12:25:16;;;;;;;6.95;6.03;;;21.70;89.10;;;;;;5049631;28;20060;-74
2022/04/23 12:28:02;;;;;;;13.02;6.18;;;22.10;89.50;;;;;;5033192;28;20140;-83
2022/04/23 12:42:06;;;;;;;13.90;6.22;;;20.50;88.20;;;;;;5033263;28;20092;-81
2022/04/23 12:44:42;;;;;;;8.13;5.90;;;20.60;87.80;;;;;;5032607;28;20132;-81
2022/04/23 12:47:17;;;;;;;12.57;6.00;;;20.40;87.30;;;;;;5033086;28;20041;-80
2022/04/23 12:50:09;;;;;;;10.85;5.75;;;20.60;87.80;;;;;;5032988;28;20085;-81
2022/04/23 12:52:38;;;;;;;10.43;5.63;;;20.60;87.90;;;;;;5030399;28;20119;-81
2022/04/23 12:55:22;;;;;;;16.67;5.10;;;20.70;87.80;;;;;;5033098;28;20389;-81
2022/04/23 12:57:54;;;;;;;19.75;5.63;;;20.50;87.30;;;;;;5032834;28;20049;-81
2022/04/23 13:00:21;;;;;;;7.03;5.45;;;20.60;87.50;;;;;;5032755;28;20041;-80
2022/04/23 13:02:52;;;;;;;11.65;6.00;;;20.40;87.00;;;;;;5032736;28;20045;-81
2022/04/23 13:05:18;;;;;;;9.38;5.47;;;20.50;88.10;;;;;;5032576;28;20091;-81
2022/04/23 13:10:28;;;;;;;7.72;5.05;;;20.30;87.20;;;;;;5032925;28;20152;-72
2022/04/23 13:12:54;;;;;;;9.57;5.38;;;20.70;87.10;;;;;;5033746;28;20536;-72
2022/04/23 13:15:20;;;;;;;7.82;5.25;;;21.10;86.80;;;;;;5032617;28;20476;-78
2022/04/23 13:17:47;;;;;;;8.75;5.53;;;21.30;87.30;;;;;;5033229;28;20524;-72
2022/04/23 13:20:14;;;;;;;5.75;4.75;;;21.70;87.60;;;;;;5032453;28;20499;-72
2022/04/23 13:22:43;;;;;;;6.90;4.65;;;22.30;87.70;;;;;;5033090;28;20096;-72